Time;durP1;ratioP1;P1;durP2;ratioP2;P2;SDS_P1;SDS_P2;PMS_P1;PMS_P2;Temp;Humidity;BMP_temperature;BMP_pressure;BME280_temperature;BME280_humidity;BME280_pressure;Samples;Min_cycle;Max_cycle;Signal;HPM_P1;HPM_P2
2022/03/26 00:00:39;;;;;;;30.70;18.80;;;;;;;;;;2072990;28;20192;-64
2022/03/26 00:01:46;;;;;;;30.23;20.10;;;;;;;;;;2070067;28;20169;-64
2022/03/26 00:02:46;;;;;;;31.08;19.27;;;;;;;;;;2072951;28;20177;-63
2022/03/26 00:03:46;;;;;;;28.02;19.83;;;;;;;;;;2071595;28;20188;-64
2022/03/26 00:04:47;;;;;;;33.20;19.13;;;;;;;;;;2072489;28;20196;-63
2022/03/26 00:05:47;;;;;;;36.10;19.75;;;;;;;;;;2069756;28;20197;-62
2022/03/26 00:06:47;;;;;;;32.45;19.75;;;;;;;;;;2065649;28;20181;-63
2022/03/26 00:07:48;;;;;;;31.30;19.67;;;;;;;;;;2065457;28;20189;-61
2022/03/26 00:08:49;;;;;;;29.55;20.02;;;;;;;;;;2066159;28;20225;-62
2022/03/26 00:09:49;;;;;;;34.42;20.50;;;;;;;;;;2074526;28;20165;-62
2022/03/26 00:10:49;;;;;;;30.00;19.02;;;;;;;;;;2070997;28;20246;-63
2022/03/26 00:11:53;;;;;;;29.87;18.37;;;;;;;;;;2074066;28;20196;-65
2022/03/26 00:12:53;;;;;;;29.70;19.20;;;;;;;;;;2073937;28;20161;-63
2022/03/26 00:13:54;;;;;;;30.10;19.52;;;;;;;;;;2069382;28;20256;-62
2022/03/26 00:14:54;;;;;;;29.80;19.98;;;;;;;;;;2069545;28;20189;-63
2022/03/26 00:15:54;;;;;;;31.27;19.03;;;;;;;;;;2070453;28;21636;-63
2022/03/26 00:16:54;;;;;;;26.10;19.27;;;;;;;;;;2074383;28;20559;-63
2022/03/26 00:17:55;;;;;;;32.85;22.50;;;;;;;;;;2070694;28;20189;-63
2022/03/26 00:18:55;;;;;;;35.83;22.97;;;;;;;;;;2063235;28;20174;-66
2022/03/26 00:19:56;;;;;;;44.53;28.37;;;;;;;;;;2061906;28;20248;-64
2022/03/26 00:20:56;;;;;;;35.40;21.85;;;;;;;;;;2065139;28;20640;-65
2022/03/26 00:21:56;;;;;;;28.73;19.60;;;;;;;;;;2064857;28;20213;-64
2022/03/26 00:22:56;;;;;;;30.67;19.58;;;;;;;;;;2069991;28;20173;-64
2022/03/26 00:23:57;;;;;;;31.60;20.20;;;;;;;;;;2073253;28;20176;-63
2022/03/26 00:24:57;;;;;;;29.15;20.08;;;;;;;;;;2071783;28;20200;-63
2022/03/26 00:26:00;;;;;;;25.92;19.30;;;;;;;;;;2074129;28;20169;-62
2022/03/26 00:27:00;;;;;;;30.23;20.38;;;;;;;;;;2072655;28;20177;-63
2022/03/26 00:28:00;;;;;;;30.40;21.03;;;;;;;;;;2064681;28;20193;-64
2022/03/26 00:29:01;;;;;;;29.83;20.70;;;;;;;;;;2062366;28;20198;-64
2022/03/26 00:30:02;;;;;;;33.67;20.38;;;;;;;;;;2073017;28;20169;-62
2022/03/26 00:31:02;;;;;;;30.35;20.60;;;;;;;;;;2070353;28;20183;-63
2022/03/26 00:32:04;;;;;;;26.92;18.70;;;;;;;;;;2072969;28;20188;-62
2022/03/26 00:33:04;;;;;;;28.87;19.13;;;;;;;;;;2068890;28;20212;-63
2022/03/26 00:34:05;;;;;;;31.92;20.15;;;;;;;;;;2070443;28;20177;-61
2022/03/26 00:35:09;;;;;;;28.15;20.00;;;;;;;;;;2072662;28;20183;-62
2022/03/26 00:36:09;;;;;;;32.50;20.67;;;;;;;;;;2073606;28;20282;-63
2022/03/26 00:37:09;;;;;;;33.85;19.90;;;;;;;;;;2072979;28;20196;-62
2022/03/26 00:38:10;;;;;;;29.17;20.05;;;;;;;;;;2071858;28;20197;-63
2022/03/26 00:39:10;;;;;;;28.60;20.87;;;;;;;;;;2074042;28;20177;-59
2022/03/26 00:40:11;;;;;;;28.73;19.57;;;;;;;;;;2072566;28;20713;-63
2022/03/26 00:41:11;;;;;;;29.50;20.48;;;;;;;;;;2070825;28;20570;-65
2022/03/26 00:42:11;;;;;;;29.75;19.38;;;;;;;;;;2073567;28;20306;-64
2022/03/26 00:43:11;;;;;;;27.80;19.57;;;;;;;;;;2071912;28;20430;-62
2022/03/26 00:44:12;;;;;;;29.10;21.03;;;;;;;;;;2071123;28;20174;-63
2022/03/26 00:45:12;;;;;;;30.00;19.70;;;;;;;;;;2060410;28;20190;-63
2022/03/26 00:46:13;;;;;;;32.33;20.43;;;;;;;;;;2061966;28;20231;-66
2022/03/26 00:47:13;;;;;;;31.13;20.40;;;;;;;;;;2070896;28;20185;-63
2022/03/26 00:48:13;;;;;;;28.05;19.48;;;;;;;;;;2070354;28;20204;-63
2022/03/26 00:49:14;;;;;;;27.50;19.97;;;;;;;;;;2064629;28;20586;-63
2022/03/26 00:50:14;;;;;;;28.55;19.70;;;;;;;;;;2062034;28;20166;-65
2022/03/26 00:51:15;;;;;;;29.40;20.10;;;;;;;;;;2064758;28;20820;-64
2022/03/26 00:52:15;;;;;;;30.57;20.53;;;;;;;;;;2064544;28;20178;-63
2022/03/26 00:53:15;;;;;;;29.77;20.57;;;;;;;;;;2068614;28;20192;-65
2022/03/26 00:54:16;;;;;;;31.48;20.73;;;;;;;;;;2069891;28;20550;-61
2022/03/26 00:55:16;;;;;;;33.70;21.02;;;;;;;;;;2072943;28;20177;-63
2022/03/26 00:56:16;;;;;;;31.37;19.87;;;;;;;;;;2073803;28;20638;-65
2022/03/26 00:57:16;;;;;;;29.60;20.37;;;;;;;;;;2073744;28;20208;-64
2022/03/26 00:58:17;;;;;;;29.23;20.20;;;;;;;;;;2064599;28;20910;-65
2022/03/26 00:59:17;;;;;;;33.07;20.90;;;;;;;;;;2064618;28;20179;-64
2022/03/26 01:00:17;;;;;;;27.77;19.80;;;;;;;;;;2072653;28;20188;-62
2022/03/26 01:01:18;;;;;;;28.90;19.60;;;;;;;;;;2073448;28;20258;-64
2022/03/26 01:02:18;;;;;;;32.60;20.33;;;;;;;;;;2073080;28;20766;-62
2022/03/26 01:03:18;;;;;;;30.20;19.10;;;;;;;;;;2065005;28;20181;-63
2022/03/26 01:04:19;;;;;;;28.67;20.37;;;;;;;;;;2063612;28;20222;-62
2022/03/26 01:05:20;;;;;;;30.80;20.60;;;;;;;;;;2073849;28;20196;-62
2022/03/26 01:06:20;;;;;;;29.20;19.57;;;;;;;;;;2073808;28;20184;-62
2022/03/26 01:07:20;;;;;;;32.53;20.57;;;;;;;;;;2067683;28;20664;-64
2022/03/26 01:08:21;;;;;;;32.63;20.13;;;;;;;;;;2071659;28;20212;-61
2022/03/26 01:09:21;;;;;;;30.07;20.87;;;;;;;;;;2073202;28;20173;-62
2022/03/26 01:10:21;;;;;;;31.57;20.20;;;;;;;;;;2073469;28;20318;-60
2022/03/26 01:11:22;;;;;;;34.63;20.57;;;;;;;;;;2064567;28;20177;-59
2022/03/26 01:12:22;;;;;;;28.33;20.57;;;;;;;;;;2064414;28;20170;-62
2022/03/26 01:13:25;;;;;;;30.30;21.60;;;;;;;;;;2072289;28;20674;-61
2022/03/26 01:14:25;;;;;;;38.53;22.57;;;;;;;;;;2073058;28;20168;-63
2022/03/26 01:15:25;;;;;;;32.38;21.05;;;;;;;;;;2068755;28;20260;-61
2022/03/26 01:16:26;;;;;;;34.80;22.13;;;;;;;;;;2073696;28;20513;-61
2022/03/26 01:17:26;;;;;;;32.75;20.90;;;;;;;;;;2073068;28;20256;-61
2022/03/26 01:18:27;;;;;;;33.22;20.92;;;;;;;;;;2073268;28;20215;-64
2022/03/26 01:19:28;;;;;;;32.43;21.20;;;;;;;;;;2065229;28;20583;-60
2022/03/26 01:20:28;;;;;;;36.72;22.05;;;;;;;;;;2065226;28;20206;-60
2022/03/26 01:21:29;;;;;;;29.65;21.15;;;;;;;;;;2073975;28;20247;-61
2022/03/26 01:22:29;;;;;;;33.03;22.47;;;;;;;;;;2073659;28;20164;-63
2022/03/26 01:23:30;;;;;;;34.72;21.45;;;;;;;;;;2074056;28;20744;-63
2022/03/26 01:24:30;;;;;;;33.27;20.87;;;;;;;;;;2073838;28;20169;-58
2022/03/26 01:25:30;;;;;;;33.97;21.13;;;;;;;;;;2074072;28;20259;-61
2022/03/26 01:26:31;;;;;;;32.20;21.57;;;;;;;;;;2074076;28;20252;-63
2022/03/26 01:27:31;;;;;;;29.23;21.57;;;;;;;;;;2065330;28;20272;-63
2022/03/26 01:28:31;;;;;;;33.20;21.67;;;;;;;;;;2065229;28;20178;-63
2022/03/26 01:29:32;;;;;;;32.83;21.73;;;;;;;;;;2073373;28;20279;-63
2022/03/26 01:30:32;;;;;;;32.87;21.67;;;;;;;;;;2081822;28;20221;-61
2022/03/26 01:31:32;;;;;;;32.47;22.10;;;;;;;;;;2074001;28;20177;-64
2022/03/26 01:32:33;;;;;;;27.83;20.40;;;;;;;;;;2065934;28;20595;-59
2022/03/26 01:33:34;;;;;;;35.23;22.17;;;;;;;;;;2065539;28;20182;-59
2022/03/26 01:34:34;;;;;;;33.83;20.57;;;;;;;;;;2074419;28;20260;-62
2022/03/26 01:35:35;;;;;;;33.03;21.40;;;;;;;;;;2074290;28;20235;-62
2022/03/26 01:36:35;;;;;;;29.80;20.50;;;;;;;;;;2073908;28;20235;-60
2022/03/26 01:37:35;;;;;;;32.97;21.33;;;;;;;;;;2071273;28;20193;-64
2022/03/26 01:38:35;;;;;;;32.53;20.77;;;;;;;;;;2073883;28;20181;-60
2022/03/26 01:39:36;;;;;;;33.03;21.73;;;;;;;;;;2074032;28;20684;-58
2022/03/26 01:40:36;;;;;;;35.13;21.43;;;;;;;;;;2065367;28;20232;-63
2022/03/26 01:41:37;;;;;;;30.33;21.20;;;;;;;;;;2065442;28;20261;-64
2022/03/26 01:42:37;;;;;;;31.23;21.27;;;;;;;;;;2072752;28;20300;-62
2022/03/26 01:43:39;;;;;;;30.73;20.93;;;;;;;;;;2062619;28;20657;-57
2022/03/26 01:44:39;;;;;;;30.73;20.47;;;;;;;;;;2064584;28;20658;-63
2022/03/26 01:45:40;;;;;;;27.40;20.73;;;;;;;;;;2080178;28;20168;-62
2022/03/26 01:46:44;;;;;;;30.80;20.30;;;;;;;;;;2067150;28;20178;-63
2022/03/26 01:47:44;;;;;;;34.07;22.67;;;;;;;;;;2072919;28;20176;-63
2022/03/26 01:48:45;;;;;;;32.47;22.83;;;;;;;;;;2064140;28;20174;-64
2022/03/26 01:49:45;;;;;;;38.50;22.80;;;;;;;;;;2056249;28;20682;-64
2022/03/26 01:50:45;;;;;;;34.67;23.60;;;;;;;;;;2064329;28;20681;-60
2022/03/26 01:51:46;;;;;;;38.67;22.97;;;;;;;;;;2071130;28;20180;-60
2022/03/26 01:52:46;;;;;;;33.90;22.93;;;;;;;;;;2063207;28;20760;-60
2022/03/26 01:53:48;;;;;;;34.07;22.10;;;;;;;;;;2063978;28;20204;-63
2022/03/26 01:54:48;;;;;;;30.87;22.60;;;;;;;;;;2072350;28;20192;-61
2022/03/26 01:55:48;;;;;;;36.63;21.70;;;;;;;;;;2073723;28;20197;-60
2022/03/26 01:56:49;;;;;;;36.33;22.20;;;;;;;;;;2071415;28;20301;-65
2022/03/26 01:57:50;;;;;;;28.60;20.87;;;;;;;;;;2073441;28;20180;-65
2022/03/26 01:58:50;;;;;;;35.60;22.87;;;;;;;;;;2068866;28;20745;-63
2022/03/26 01:59:51;;;;;;;36.87;21.27;;;;;;;;;;2067378;28;20173;-63
2022/03/26 02:00:52;;;;;;;38.53;22.53;;;;;;;;;;2068843;28;20220;-65
2022/03/26 02:01:52;;;;;;;32.67;22.00;;;;;;;;;;2073043;28;20239;-61
2022/03/26 02:02:56;;;;;;;31.67;21.97;;;;;;;;;;2073173;28;20260;-64
2022/03/26 02:03:56;;;;;;;34.27;21.47;;;;;;;;;;2069848;28;20193;-64
2022/03/26 02:04:57;;;;;;;35.50;22.07;;;;;;;;;;2068190;28;20185;-64
2022/03/26 02:05:58;;;;;;;34.80;22.33;;;;;;;;;;2071336;28;20169;-65
2022/03/26 02:06:58;;;;;;;32.13;21.37;;;;;;;;;;2068551;28;20216;-61
2022/03/26 02:07:58;;;;;;;38.83;21.80;;;;;;;;;;2073529;28;20201;-61
2022/03/26 02:09:09;;;;;;;33.30;20.60;;;;;;;;;;2061169;28;20182;-61
2022/03/26 02:10:10;;;;;;;31.83;21.33;;;;;;;;;;2062545;28;20717;-63
2022/03/26 02:11:10;;;;;;;33.27;21.37;;;;;;;;;;2072760;28;20269;-64
2022/03/26 02:12:30;;;;;;;33.07;21.93;;;;;;;;;;2068979;28;20181;-64
2022/03/26 02:13:50;;;;;;;30.53;21.30;;;;;;;;;;2072816;28;20197;-59
2022/03/26 02:14:50;;;;;;;32.67;21.27;;;;;;;;;;2067343;28;20209;-62
2022/03/26 02:15:51;;;;;;;33.03;21.80;;;;;;;;;;2072754;28;20180;-61
2022/03/26 02:16:52;;;;;;;34.20;21.63;;;;;;;;;;2073835;28;20715;-62
2022/03/26 02:17:53;;;;;;;37.57;23.03;;;;;;;;;;2073654;28;20173;-64
2022/03/26 02:18:53;;;;;;;33.73;22.80;;;;;;;;;;2072781;28;20181;-64
2022/03/26 02:19:54;;;;;;;35.03;21.90;;;;;;;;;;2072362;28;20190;-60
2022/03/26 02:20:54;;;;;;;40.97;21.17;;;;;;;;;;2072049;28;20244;-64
2022/03/26 02:21:54;;;;;;;33.27;23.20;;;;;;;;;;2073466;28;20187;-62
2022/03/26 02:22:55;;;;;;;34.90;22.77;;;;;;;;;;2073797;28;20227;-62
2022/03/26 02:23:55;;;;;;;38.90;24.87;;;;;;;;;;2064044;28;20280;-64
2022/03/26 02:24:55;;;;;;;34.13;22.40;;;;;;;;;;2064172;28;20245;-67
2022/03/26 02:25:56;;;;;;;34.07;23.23;;;;;;;;;;2064100;28;20178;-65
2022/03/26 02:26:56;;;;;;;38.10;24.47;;;;;;;;;;2063008;28;20265;-64
2022/03/26 02:27:56;;;;;;;36.50;24.07;;;;;;;;;;2064213;28;20248;-64
2022/03/26 02:28:57;;;;;;;40.07;23.50;;;;;;;;;;2069307;28;20193;-64
2022/03/26 02:29:57;;;;;;;32.33;21.43;;;;;;;;;;2072414;28;20184;-66
2022/03/26 02:30:58;;;;;;;32.13;22.00;;;;;;;;;;2072555;28;20192;-63
2022/03/26 02:31:58;;;;;;;33.13;21.63;;;;;;;;;;2072139;28;20633;-62
2022/03/26 02:32:58;;;;;;;34.03;22.30;;;;;;;;;;2073801;28;20177;-61
2022/03/26 02:33:58;;;;;;;33.53;22.00;;;;;;;;;;2072655;28;20161;-62
2022/03/26 02:34:59;;;;;;;33.87;21.77;;;;;;;;;;2073092;28;20203;-62
2022/03/26 02:35:59;;;;;;;37.50;23.20;;;;;;;;;;2064077;28;20178;-63
2022/03/26 02:37:00;;;;;;;33.73;23.20;;;;;;;;;;2064185;28;20170;-64
2022/03/26 02:38:00;;;;;;;36.30;22.37;;;;;;;;;;2073424;28;20540;-63
2022/03/26 02:39:00;;;;;;;37.60;22.23;;;;;;;;;;2064917;28;20725;-58
2022/03/26 02:40:04;;;;;;;30.67;20.67;;;;;;;;;;2064980;28;20558;-63
2022/03/26 02:41:05;;;;;;;31.10;21.53;;;;;;;;;;2065163;28;20193;-64
2022/03/26 02:42:05;;;;;;;30.63;22.20;;;;;;;;;;2065041;28;20562;-62
2022/03/26 02:43:06;;;;;;;32.27;21.60;;;;;;;;;;2073453;28;20272;-62
2022/03/26 02:44:06;;;;;;;33.63;21.27;;;;;;;;;;2065250;28;20181;-61
2022/03/26 02:45:07;;;;;;;31.93;21.60;;;;;;;;;;2068564;28;20181;-61
2022/03/26 02:46:07;;;;;;;33.60;21.40;;;;;;;;;;2073466;28;20220;-60
2022/03/26 02:47:09;;;;;;;33.33;21.17;;;;;;;;;;2064845;28;20173;-60
2022/03/26 02:48:12;;;;;;;31.97;21.20;;;;;;;;;;2064541;28;20212;-62
2022/03/26 02:49:13;;;;;;;32.80;20.77;;;;;;;;;;2064702;28;20609;-62
2022/03/26 02:50:13;;;;;;;31.63;20.90;;;;;;;;;;2056522;28;20193;-62
2022/03/26 02:51:14;;;;;;;31.43;20.60;;;;;;;;;;2065023;28;20180;-61
2022/03/26 02:52:14;;;;;;;30.63;20.37;;;;;;;;;;2073722;28;20181;-61
2022/03/26 02:53:14;;;;;;;33.33;20.63;;;;;;;;;;2073934;28;20165;-63
2022/03/26 02:54:20;;;;;;;38.60;22.00;;;;;;;;;;2073269;28;20230;-65
2022/03/26 02:55:21;;;;;;;40.23;21.33;;;;;;;;;;2072704;28;20246;-64
2022/03/26 02:56:21;;;;;;;34.20;21.30;;;;;;;;;;2072533;28;20703;-63
2022/03/26 02:57:21;;;;;;;29.23;21.37;;;;;;;;;;2072781;28;20189;-63
2022/03/26 02:58:21;;;;;;;31.67;21.03;;;;;;;;;;2072206;28;20176;-63
2022/03/26 02:59:23;;;;;;;32.27;20.83;;;;;;;;;;2073269;28;20177;-61
2022/03/26 03:00:23;;;;;;;31.97;19.83;;;;;;;;;;2069433;28;20224;-63
2022/03/26 03:01:24;;;;;;;29.03;20.43;;;;;;;;;;2066669;28;20692;-64
2022/03/26 03:02:24;;;;;;;30.03;21.37;;;;;;;;;;2065006;28;20189;-63
2022/03/26 03:03:24;;;;;;;31.73;21.03;;;;;;;;;;2064561;28;20188;-63
2022/03/26 03:04:24;;;;;;;31.60;21.07;;;;;;;;;;2067565;28;20549;-63
2022/03/26 03:05:25;;;;;;;28.10;20.07;;;;;;;;;;2073721;28;20658;-64
2022/03/26 03:06:25;;;;;;;32.83;20.63;;;;;;;;;;2070118;28;20201;-61
2022/03/26 03:07:25;;;;;;;32.10;19.47;;;;;;;;;;2071202;28;20236;-63
2022/03/26 03:08:26;;;;;;;35.50;20.90;;;;;;;;;;2064505;28;20235;-64
2022/03/26 03:09:26;;;;;;;36.50;20.80;;;;;;;;;;2065206;28;20181;-63
2022/03/26 03:10:27;;;;;;;30.40;20.30;;;;;;;;;;2069420;28;20243;-64
2022/03/26 03:11:27;;;;;;;30.70;21.27;;;;;;;;;;2072374;28;20175;-63
2022/03/26 03:12:28;;;;;;;33.80;21.57;;;;;;;;;;2070444;28;20192;-62
2022/03/26 03:13:28;;;;;;;29.30;19.60;;;;;;;;;;2073063;28;20283;-63
2022/03/26 03:14:29;;;;;;;35.97;21.50;;;;;;;;;;2067483;28;20198;-61
2022/03/26 03:15:29;;;;;;;35.20;20.30;;;;;;;;;;2071822;28;20288;-63
2022/03/26 03:16:29;;;;;;;28.43;20.10;;;;;;;;;;2072640;28;20188;-64
2022/03/26 03:17:29;;;;;;;33.20;20.77;;;;;;;;;;2064016;28;20188;-63
2022/03/26 03:18:30;;;;;;;33.03;21.60;;;;;;;;;;2064053;28;20169;-63
2022/03/26 03:19:30;;;;;;;32.67;21.03;;;;;;;;;;2066421;28;20231;-63
2022/03/26 03:20:30;;;;;;;31.70;21.40;;;;;;;;;;2071473;28;20188;-64
2022/03/26 03:21:31;;;;;;;32.50;20.83;;;;;;;;;;2056866;28;20189;-63
2022/03/26 03:22:32;;;;;;;35.17;22.50;;;;;;;;;;2063786;28;20184;-60
2022/03/26 03:23:32;;;;;;;28.97;20.67;;;;;;;;;;2072574;28;20246;-63
2022/03/26 03:24:32;;;;;;;30.07;22.47;;;;;;;;;;2072119;28;20199;-62
2022/03/26 03:25:32;;;;;;;37.53;22.50;;;;;;;;;;2072717;28;20264;-61
2022/03/26 03:26:33;;;;;;;32.70;21.73;;;;;;;;;;2072111;28;20215;-64
2022/03/26 03:27:34;;;;;;;34.97;22.60;;;;;;;;;;2072019;28;20196;-62
2022/03/26 03:28:34;;;;;;;33.50;23.20;;;;;;;;;;2071851;28;20196;-64
2022/03/26 03:29:34;;;;;;;33.77;23.30;;;;;;;;;;2072234;28;20279;-61
2022/03/26 03:30:34;;;;;;;36.53;22.43;;;;;;;;;;2063598;28;20208;-60
2022/03/26 03:31:37;;;;;;;35.33;21.97;;;;;;;;;;2055919;28;20174;-64
2022/03/26 03:32:37;;;;;;;37.90;22.63;;;;;;;;;;2063553;28;20181;-64
2022/03/26 03:33:37;;;;;;;35.73;22.70;;;;;;;;;;2072474;28;20230;-65
2022/03/26 03:34:38;;;;;;;33.67;22.33;;;;;;;;;;2069712;28;20177;-61
2022/03/26 03:35:39;;;;;;;33.97;20.40;;;;;;;;;;2072308;28;20255;-63
2022/03/26 03:36:39;;;;;;;37.13;22.20;;;;;;;;;;2071269;28;20267;-63
2022/03/26 03:37:39;;;;;;;36.33;21.10;;;;;;;;;;2072890;28;20169;-61
2022/03/26 03:38:40;;;;;;;35.90;22.50;;;;;;;;;;2063845;28;20221;-64
2022/03/26 03:39:40;;;;;;;34.60;21.63;;;;;;;;;;2064017;28;20169;-60
2022/03/26 03:40:40;;;;;;;34.07;22.17;;;;;;;;;;2071654;28;20192;-60
2022/03/26 03:41:41;;;;;;;33.17;22.77;;;;;;;;;;2072712;28;20184;-62
2022/03/26 03:42:41;;;;;;;36.77;22.83;;;;;;;;;;2072418;28;20185;-63
2022/03/26 03:43:41;;;;;;;42.87;24.27;;;;;;;;;;2072557;28;20184;-63
2022/03/26 03:44:41;;;;;;;34.50;23.07;;;;;;;;;;2066257;28;20189;-63
2022/03/26 03:45:42;;;;;;;35.53;22.63;;;;;;;;;;2072095;28;20177;-63
2022/03/26 03:46:42;;;;;;;33.93;23.50;;;;;;;;;;2066163;28;20173;-64
2022/03/26 03:47:42;;;;;;;36.13;23.03;;;;;;;;;;2072509;28;20680;-61
2022/03/26 03:48:42;;;;;;;38.53;23.70;;;;;;;;;;2072159;28;20184;-60
2022/03/26 03:49:42;;;;;;;32.60;21.93;;;;;;;;;;2072629;28;20191;-58
2022/03/26 03:50:44;;;;;;;37.23;23.67;;;;;;;;;;2062437;28;20228;-64
2022/03/26 03:51:44;;;;;;;37.87;23.47;;;;;;;;;;2064821;28;20173;-64
2022/03/26 03:52:45;;;;;;;34.17;22.50;;;;;;;;;;2066492;28;20169;-64
2022/03/26 03:53:45;;;;;;;37.93;23.67;;;;;;;;;;2072010;28;20184;-63
2022/03/26 03:54:45;;;;;;;37.80;22.63;;;;;;;;;;2065499;28;20166;-64
2022/03/26 03:55:45;;;;;;;39.07;23.97;;;;;;;;;;2071335;28;20181;-63
2022/03/26 03:56:46;;;;;;;38.20;26.73;;;;;;;;;;2064049;28;20216;-63
2022/03/26 03:57:46;;;;;;;38.57;25.03;;;;;;;;;;2063749;28;20182;-64
2022/03/26 03:58:46;;;;;;;44.43;27.33;;;;;;;;;;2063839;28;20515;-64
2022/03/26 03:59:46;;;;;;;42.90;27.17;;;;;;;;;;2071885;28;20189;-63
2022/03/26 04:00:46;;;;;;;40.67;26.53;;;;;;;;;;2072220;28;20193;-65
2022/03/26 04:01:47;;;;;;;48.47;28.67;;;;;;;;;;2072624;28;20215;-64
2022/03/26 04:02:47;;;;;;;46.47;27.70;;;;;;;;;;2071882;28;20173;-61
2022/03/26 04:03:48;;;;;;;46.40;27.07;;;;;;;;;;2072511;28;20185;-62
2022/03/26 04:04:48;;;;;;;45.57;28.77;;;;;;;;;;2071663;28;20192;-58
2022/03/26 04:05:48;;;;;;;46.03;29.93;;;;;;;;;;2072672;28;20193;-62
2022/03/26 04:06:48;;;;;;;42.60;28.40;;;;;;;;;;2071840;28;20205;-59
2022/03/26 04:07:49;;;;;;;47.53;30.90;;;;;;;;;;2072905;28;20181;-61
2022/03/26 04:08:49;;;;;;;55.47;33.30;;;;;;;;;;2071847;28;20189;-61
2022/03/26 04:09:49;;;;;;;62.97;36.83;;;;;;;;;;2073517;28;20219;-58
2022/03/26 04:10:49;;;;;;;56.87;36.40;;;;;;;;;;2074330;28;20189;-63
2022/03/26 04:11:50;;;;;;;52.80;31.47;;;;;;;;;;2072611;28;20165;-61
2022/03/26 04:12:50;;;;;;;57.00;33.33;;;;;;;;;;2074266;28;20224;-57
2022/03/26 04:13:54;;;;;;;50.83;32.07;;;;;;;;;;2074049;28;20211;-61
2022/03/26 04:14:54;;;;;;;44.23;27.97;;;;;;;;;;2065566;28;20564;-60
2022/03/26 04:15:55;;;;;;;44.40;29.73;;;;;;;;;;2063118;28;20178;-61
2022/03/26 04:16:55;;;;;;;47.97;28.60;;;;;;;;;;2068897;28;20276;-63
2022/03/26 04:17:55;;;;;;;47.00;29.17;;;;;;;;;;2065209;28;20185;-62
2022/03/26 04:18:57;;;;;;;46.70;28.90;;;;;;;;;;2064711;28;20718;-63
2022/03/26 04:19:57;;;;;;;41.60;27.50;;;;;;;;;;2066549;28;20182;-63
2022/03/26 04:20:57;;;;;;;48.43;29.07;;;;;;;;;;2072938;28;20208;-62
2022/03/26 04:21:57;;;;;;;41.43;28.17;;;;;;;;;;2075131;28;20173;-62
2022/03/26 04:22:58;;;;;;;44.70;28.13;;;;;;;;;;2072394;28;20184;-62
2022/03/26 04:23:58;;;;;;;38.43;25.97;;;;;;;;;;2069914;28;20180;-62
2022/03/26 04:24:58;;;;;;;43.63;26.70;;;;;;;;;;2075192;28;20206;-62
2022/03/26 04:25:59;;;;;;;46.57;26.90;;;;;;;;;;2070964;28;20231;-63
2022/03/26 04:26:59;;;;;;;44.33;26.03;;;;;;;;;;2066994;28;20186;-63
2022/03/26 04:27:59;;;;;;;48.23;27.43;;;;;;;;;;2073792;28;20212;-64
2022/03/26 04:28:59;;;;;;;38.63;25.90;;;;;;;;;;2074972;28;20196;-64
2022/03/26 04:29:59;;;;;;;46.40;26.77;;;;;;;;;;2073938;28;20274;-64
2022/03/26 04:31:00;;;;;;;41.20;25.33;;;;;;;;;;2073995;28;20196;-64
2022/03/26 04:32:01;;;;;;;41.47;25.70;;;;;;;;;;2072388;28;20179;-65
2022/03/26 04:33:01;;;;;;;44.73;25.33;;;;;;;;;;2070938;28;20185;-65
2022/03/26 04:34:01;;;;;;;35.53;24.60;;;;;;;;;;2069857;28;20188;-63
2022/03/26 04:35:02;;;;;;;39.57;24.60;;;;;;;;;;2075260;28;20286;-63
2022/03/26 04:36:02;;;;;;;35.90;24.10;;;;;;;;;;2070847;28;20173;-63
2022/03/26 04:37:03;;;;;;;35.70;22.87;;;;;;;;;;2071219;28;20204;-64
2022/03/26 04:38:03;;;;;;;36.60;23.53;;;;;;;;;;2070334;28;20184;-64
2022/03/26 04:39:03;;;;;;;35.13;23.33;;;;;;;;;;2069893;28;20183;-64
2022/03/26 04:40:04;;;;;;;37.57;24.03;;;;;;;;;;2073617;28;20191;-62
2022/03/26 04:41:05;;;;;;;36.17;22.97;;;;;;;;;;2073658;28;20264;-65
2022/03/26 04:42:05;;;;;;;41.17;23.60;;;;;;;;;;2074393;28;20239;-64
2022/03/26 04:43:05;;;;;;;35.47;22.50;;;;;;;;;;2074539;28;20196;-65
2022/03/26 04:44:06;;;;;;;39.77;23.87;;;;;;;;;;2074056;28;20192;-63
2022/03/26 04:45:07;;;;;;;37.87;22.60;;;;;;;;;;2073915;28;20169;-65
2022/03/26 04:46:08;;;;;;;34.37;23.90;;;;;;;;;;2074103;28;20188;-66
2022/03/26 04:47:08;;;;;;;33.13;22.00;;;;;;;;;;2074572;28;20281;-61
2022/03/26 04:48:09;;;;;;;36.97;22.37;;;;;;;;;;2074503;28;20205;-63
2022/03/26 04:49:09;;;;;;;42.20;22.77;;;;;;;;;;2074555;28;20208;-62
2022/03/26 04:50:10;;;;;;;32.23;22.03;;;;;;;;;;2074325;28;20168;-65
2022/03/26 04:51:10;;;;;;;35.80;22.83;;;;;;;;;;2074141;28;20200;-64
2022/03/26 04:52:10;;;;;;;37.13;23.63;;;;;;;;;;2074564;28;20177;-62
2022/03/26 04:53:11;;;;;;;37.13;24.00;;;;;;;;;;2065635;28;20170;-64
2022/03/26 04:54:11;;;;;;;33.37;22.80;;;;;;;;;;2065299;28;20233;-62
2022/03/26 04:55:13;;;;;;;37.07;22.80;;;;;;;;;;2065633;28;20536;-60
2022/03/26 04:56:14;;;;;;;34.03;22.30;;;;;;;;;;2065582;28;20268;-61
2022/03/26 04:57:16;;;;;;;39.47;23.60;;;;;;;;;;2064359;28;20555;-64
2022/03/26 04:58:17;;;;;;;36.10;22.43;;;;;;;;;;2071161;28;20269;-59
2022/03/26 04:59:17;;;;;;;36.27;23.27;;;;;;;;;;2073231;28;20538;-62
2022/03/26 05:00:17;;;;;;;34.27;22.57;;;;;;;;;;2073339;28;20260;-64
2022/03/26 05:01:18;;;;;;;33.37;22.70;;;;;;;;;;2068100;28;20186;-63
2022/03/26 05:02:19;;;;;;;34.27;22.63;;;;;;;;;;2067476;28;20719;-62
2022/03/26 05:03:19;;;;;;;33.03;23.53;;;;;;;;;;2071412;28;20535;-60
2022/03/26 05:04:19;;;;;;;33.33;23.70;;;;;;;;;;2073083;28;20232;-61
2022/03/26 05:05:19;;;;;;;33.83;22.63;;;;;;;;;;2064391;28;20654;-65
2022/03/26 05:06:20;;;;;;;39.50;22.97;;;;;;;;;;2064630;28;20208;-64
2022/03/26 05:08:39;;;;;;;36.07;22.77;;;;;;;;;;2059797;28;20682;-66
2022/03/26 05:09:39;;;;;;;33.37;24.13;;;;;;;;;;2073402;28;20224;-64
2022/03/26 05:10:39;;;;;;;33.30;22.23;;;;;;;;;;2072705;28;20228;-63
2022/03/26 05:11:40;;;;;;;39.43;23.23;;;;;;;;;;2073640;28;20530;-59
2022/03/26 05:12:41;;;;;;;38.47;23.77;;;;;;;;;;2073348;28;20545;-61
2022/03/26 05:13:41;;;;;;;37.73;23.60;;;;;;;;;;2073441;28;20177;-64
2022/03/26 05:14:41;;;;;;;37.07;22.57;;;;;;;;;;2072885;28;20219;-62
2022/03/26 05:15:41;;;;;;;33.40;22.50;;;;;;;;;;2072876;28;20195;-58
2022/03/26 05:16:42;;;;;;;36.10;23.40;;;;;;;;;;2072255;28;20200;-62
2022/03/26 05:17:42;;;;;;;33.60;23.53;;;;;;;;;;2072874;28;20184;-62
2022/03/26 05:18:43;;;;;;;37.93;25.23;;;;;;;;;;2074005;28;20627;-62
2022/03/26 05:19:43;;;;;;;38.50;23.57;;;;;;;;;;2071654;28;20558;-60
2022/03/26 05:22:01;;;;;;;37.83;24.20;;;;;;;;;;2072751;28;20240;-55
2022/03/26 05:23:02;;;;;;;37.80;22.90;;;;;;;;;;2081748;28;20168;-52
2022/03/26 05:24:02;;;;;;;39.50;24.50;;;;;;;;;;2078345;28;20260;-53
2022/03/26 05:25:03;;;;;;;42.40;24.03;;;;;;;;;;2085633;28;20172;-53
2022/03/26 05:26:03;;;;;;;33.53;22.23;;;;;;;;;;2081446;28;20176;-52
2022/03/26 05:27:03;;;;;;;40.83;23.97;;;;;;;;;;2081728;28;20193;-51
2022/03/26 05:28:04;;;;;;;41.80;24.80;;;;;;;;;;2081147;28;20215;-54
2022/03/26 05:29:04;;;;;;;36.70;23.43;;;;;;;;;;2085077;28;20261;-57
2022/03/26 05:30:05;;;;;;;45.30;24.40;;;;;;;;;;2078085;28;20161;-54
2022/03/26 05:31:05;;;;;;;35.80;23.93;;;;;;;;;;2083435;28;20192;-52
2022/03/26 05:32:06;;;;;;;40.53;23.77;;;;;;;;;;2085201;28;20176;-53
2022/03/26 05:33:06;;;;;;;35.87;24.50;;;;;;;;;;2085389;28;20179;-53
2022/03/26 05:34:06;;;;;;;34.57;22.60;;;;;;;;;;2085452;28;20172;-53
2022/03/26 05:35:11;;;;;;;37.57;24.27;;;;;;;;;;2088561;28;20191;-54
2022/03/26 05:36:11;;;;;;;33.40;23.73;;;;;;;;;;2089282;28;20251;-52
2022/03/26 05:37:12;;;;;;;38.23;24.13;;;;;;;;;;2078568;28;20169;-53
2022/03/26 05:38:13;;;;;;;38.17;24.10;;;;;;;;;;2078988;28;20172;-55
2022/03/26 05:39:13;;;;;;;41.30;24.80;;;;;;;;;;2089419;28;20241;-54
2022/03/26 05:40:16;;;;;;;39.10;25.00;;;;;;;;;;2086660;28;20291;-56
2022/03/26 05:41:16;;;;;;;40.97;24.13;;;;;;;;;;2084900;28;20242;-53
2022/03/26 05:42:18;;;;;;;40.03;23.00;;;;;;;;;;2081115;28;20227;-52
2022/03/26 05:43:18;;;;;;;37.27;23.50;;;;;;;;;;2093263;28;20237;-53
2022/03/26 05:44:18;;;;;;;34.50;23.10;;;;;;;;;;2080245;28;20469;-52
2022/03/26 05:45:19;;;;;;;34.20;23.53;;;;;;;;;;2084801;28;20181;-52
2022/03/26 05:46:19;;;;;;;35.70;24.03;;;;;;;;;;2077575;28;20177;-60
2022/03/26 05:47:19;;;;;;;36.37;23.30;;;;;;;;;;2080164;28;20185;-51
2022/03/26 05:48:19;;;;;;;36.50;23.80;;;;;;;;;;2079613;28;20204;-55
2022/03/26 05:49:21;;;;;;;35.73;24.53;;;;;;;;;;2091373;28;20171;-53
2022/03/26 05:50:21;;;;;;;41.37;24.27;;;;;;;;;;2087051;28;20176;-55
2022/03/26 05:51:21;;;;;;;40.30;24.60;;;;;;;;;;2087834;28;20222;-54
2022/03/26 05:52:21;;;;;;;39.47;23.80;;;;;;;;;;2089708;28;20671;-54
2022/03/26 05:53:22;;;;;;;40.47;24.97;;;;;;;;;;2094744;28;20187;-55
2022/03/26 05:54:22;;;;;;;37.03;23.47;;;;;;;;;;2088019;28;20199;-54
2022/03/26 05:55:23;;;;;;;37.27;23.60;;;;;;;;;;2092114;28;20180;-56